createdAt,value
2018-12-08T00:04:52.610Z,9.00
2018-12-08T00:20:52.683Z,9.10
2018-12-08T00:25:57.225Z,9.10
2018-12-08T00:31:12.152Z,9.00
2018-12-08T00:36:16.024Z,9.10
2018-12-08T00:41:20.250Z,9.00
2018-12-08T00:46:24.194Z,9.10
2018-12-08T00:51:28.643Z,9.10
2018-12-08T00:56:33.108Z,9.10
2018-12-08T01:01:37.969Z,9.10
2018-12-08T01:06:41.933Z,9.10
2018-12-08T01:11:46.730Z,9.00
2018-12-08T01:16:50.284Z,9.00
2018-12-08T01:21:53.836Z,9.00
2018-12-08T01:26:57.476Z,8.90
2018-12-08T01:32:01.159Z,8.90
2018-12-08T01:37:04.878Z,8.90
2018-12-08T01:42:09.140Z,8.90
2018-12-08T01:47:18.935Z,8.90
2018-12-08T01:52:22.886Z,8.90
2018-12-08T01:57:26.828Z,8.90
2018-12-08T02:02:30.930Z,8.90
2018-12-08T02:07:35.758Z,8.90
2018-12-08T02:12:39.879Z,8.90
2018-12-08T02:17:43.890Z,8.90
2018-12-08T02:22:47.726Z,9.00
2018-12-08T02:27:51.949Z,9.00
2018-12-08T02:32:55.541Z,9.00
2018-12-08T02:37:59.116Z,8.90
2018-12-08T02:43:03.802Z,9.00
2018-12-08T02:48:07.425Z,9.00
2018-12-08T02:53:11.056Z,9.00
2018-12-08T02:58:16.040Z,9.00
2018-12-08T03:03:19.952Z,9.00
2018-12-08T03:08:24.132Z,9.00
2018-12-08T03:13:28.535Z,9.00
2018-12-08T03:18:32.665Z,9.00
2018-12-08T03:23:36.545Z,9.00
2018-12-08T03:28:40.713Z,8.90
2018-12-08T03:33:44.545Z,8.90
2018-12-08T03:49:44.512Z,9.00
2018-12-08T03:54:48.585Z,9.00
2018-12-08T03:59:52.236Z,9.10
2018-12-08T04:04:56.209Z,9.10
2018-12-08T04:10:00.777Z,9.10
2018-12-08T04:15:05.897Z,9.10
2018-12-08T04:20:10.467Z,9.10
2018-12-08T04:25:15.197Z,9.20
2018-12-08T04:30:18.921Z,9.20
2018-12-08T04:35:23.251Z,9.20
2018-12-08T04:40:27.263Z,9.20
2018-12-08T04:45:30.971Z,9.20
2018-12-08T04:50:35.368Z,9.20
2018-12-08T04:55:38.952Z,9.20
2018-12-08T05:00:42.840Z,9.20
2018-12-08T05:05:46.361Z,9.30
2018-12-08T05:10:50.032Z,9.30
2018-12-08T05:15:54.264Z,9.30
2018-12-08T05:20:58.065Z,9.30
2018-12-08T05:26:01.603Z,9.30
2018-12-08T05:31:05.850Z,9.30
2018-12-08T05:36:10.574Z,9.30
2018-12-08T05:41:24.375Z,9.30
2018-12-08T05:46:28.718Z,9.40
2018-12-08T05:57:10.085Z,9.30
2018-12-08T06:02:14.353Z,9.30
2018-12-08T06:07:31.290Z,9.30
2018-12-08T06:18:09.339Z,9.40
2018-12-08T06:23:15.063Z,9.40
2018-12-08T06:28:28.131Z,9.40
2018-12-08T06:44:47.676Z,9.40
2018-12-08T07:17:11.071Z,9.40
2018-12-08T07:22:15.031Z,9.40
2018-12-08T07:27:19.905Z,9.40
2018-12-08T07:32:24.595Z,9.40
2018-12-08T07:37:28.440Z,9.40
2018-12-08T07:42:32.024Z,9.40
2018-12-08T07:47:35.643Z,9.40
2018-12-08T07:52:39.246Z,9.30
2018-12-08T07:57:42.894Z,9.30
2018-12-08T08:02:47.566Z,9.30
2018-12-08T08:07:51.147Z,9.30
2018-12-08T08:12:54.910Z,9.20
2018-12-08T08:17:58.493Z,9.20
2018-12-08T08:23:16.208Z,9.20
2018-12-08T08:28:19.898Z,9.20
2018-12-08T08:33:23.421Z,9.20
2018-12-08T08:38:28.402Z,9.20
2018-12-08T08:48:59.971Z,9.20
2018-12-08T08:54:04.525Z,9.30
2018-12-08T08:59:08.345Z,9.30
2018-12-08T09:04:13.236Z,9.30
2018-12-08T09:09:17.733Z,9.30
2018-12-08T09:14:21.646Z,9.30
2018-12-08T09:19:25.541Z,9.40
2018-12-08T09:24:29.896Z,9.30
2018-12-08T09:29:34.036Z,9.30
2018-12-08T09:34:38.702Z,9.30
2018-12-08T09:39:42.980Z,9.30
2018-12-08T09:44:47.304Z,9.30
2018-12-08T09:49:51.611Z,9.30
2018-12-08T09:54:55.843Z,9.30
2018-12-08T10:00:00.713Z,9.30
2018-12-08T10:05:04.543Z,9.30
2018-12-08T10:10:08.658Z,9.30
2018-12-08T10:15:12.280Z,9.30
2018-12-08T10:20:16.332Z,9.40
2018-12-08T10:25:19.952Z,9.40
2018-12-08T10:30:23.876Z,9.40
2018-12-08T10:35:27.679Z,9.40
2018-12-08T10:40:31.331Z,9.40
2018-12-08T10:45:35.600Z,9.40
2018-12-08T10:50:39.203Z,9.40
2018-12-08T10:55:42.899Z,9.40
2018-12-08T11:00:51.737Z,9.40
2018-12-08T11:05:55.367Z,9.40
2018-12-08T11:10:59.336Z,9.50
2018-12-08T11:16:02.934Z,9.50
2018-12-08T11:21:07.936Z,9.50
2018-12-08T11:26:11.863Z,9.60
2018-12-08T11:31:15.411Z,9.60
2018-12-08T11:36:19.840Z,9.70
2018-12-08T11:41:23.356Z,9.70
2018-12-08T11:46:27.893Z,9.70
2018-12-08T11:51:32.608Z,9.80
2018-12-08T11:56:36.273Z,9.80
2018-12-08T12:01:39.857Z,9.80
2018-12-08T12:06:44.216Z,9.90
2018-12-08T12:11:47.765Z,9.90
2018-12-08T12:16:51.284Z,9.90
2018-12-08T12:21:54.807Z,10.00
2018-12-08T12:26:58.398Z,10.10
2018-12-08T12:32:05.025Z,10.20
2018-12-08T12:37:09.167Z,10.20
2018-12-08T12:42:13.409Z,10.20
2018-12-08T13:03:40.643Z,10.50
2018-12-08T13:08:44.599Z,10.50
2018-12-08T13:13:49.317Z,10.40
2018-12-08T13:18:53.531Z,10.40
2018-12-08T13:23:57.040Z,10.40
2018-12-08T13:29:01.829Z,10.40
2018-12-08T13:34:16.686Z,10.40
2018-12-08T13:39:20.529Z,10.30
2018-12-08T13:44:35.776Z,10.40
2018-12-08T13:49:39.637Z,10.30
2018-12-08T13:54:52.395Z,10.30
2018-12-08T13:59:57.690Z,10.30
2018-12-08T14:05:01.539Z,10.40
2018-12-08T14:10:07.040Z,10.40
2018-12-08T14:15:10.863Z,10.40
2018-12-08T14:20:23.755Z,10.40
2018-12-08T14:30:55.444Z,10.40
2018-12-08T14:35:59.717Z,10.40
2018-12-08T14:41:03.275Z,10.40
2018-12-08T14:46:07.155Z,10.40
2018-12-08T14:51:11.190Z,10.30
2018-12-08T14:56:15.615Z,10.30
2018-12-08T15:01:19.237Z,10.40
2018-12-08T15:06:23.445Z,10.30
2018-12-08T15:16:55.062Z,10.40
2018-12-08T15:21:58.674Z,10.40
2018-12-08T15:27:03.207Z,10.40
2018-12-08T15:32:07.050Z,10.40
2018-12-08T15:37:11.344Z,10.50
2018-12-08T15:42:15.004Z,10.50
2018-12-08T15:47:18.643Z,10.50
2018-12-08T15:52:22.994Z,10.50
2018-12-08T15:57:27.987Z,10.60
2018-12-08T16:02:32.107Z,10.60
2018-12-08T16:07:36.387Z,10.60
2018-12-08T16:12:39.987Z,10.60
2018-12-08T16:17:57.982Z,10.60
2018-12-08T16:23:01.514Z,10.60
2018-12-08T16:28:09.714Z,10.70
2018-12-08T16:33:13.970Z,10.70
2018-12-08T16:38:17.927Z,10.70
2018-12-08T16:43:22.201Z,10.70
2018-12-08T16:48:26.402Z,10.70
2018-12-08T16:59:02.709Z,10.70
2018-12-08T17:04:06.436Z,10.80
2018-12-08T17:09:11.095Z,10.70
2018-12-08T17:14:14.725Z,10.80
2018-12-08T17:24:56.998Z,10.80
2018-12-08T17:30:01.012Z,10.80
2018-12-08T17:35:05.960Z,10.90
2018-12-08T17:40:10.153Z,10.90
2018-12-08T17:45:13.893Z,10.90
2018-12-08T17:50:17.730Z,10.90
2018-12-08T17:55:23.082Z,10.90
2018-12-08T18:00:26.679Z,10.90
2018-12-08T18:05:30.801Z,10.90
2018-12-08T18:10:34.437Z,10.90
2018-12-08T18:26:39.526Z,10.70
2018-12-08T18:31:43.167Z,10.70
2018-12-08T18:36:46.775Z,10.70
2018-12-08T18:41:50.349Z,10.60
2018-12-08T18:46:57.603Z,10.60
2018-12-08T18:52:01.384Z,10.60
2018-12-08T19:02:41.652Z,10.60
2018-12-08T19:07:46.031Z,10.60
2018-12-08T19:12:52.375Z,10.70
2018-12-08T19:17:55.971Z,10.70
2018-12-08T19:23:02.154Z,10.70
2018-12-08T19:28:20.018Z,10.70
2018-12-08T19:33:24.281Z,10.70
2018-12-08T19:43:55.824Z,10.70
2018-12-08T19:49:05.595Z,10.70
2018-12-08T20:32:24.452Z,10.80
2018-12-08T20:37:29.028Z,10.80
2018-12-08T20:42:33.064Z,10.80
2018-12-08T20:47:36.772Z,10.80
2018-12-08T20:52:40.669Z,10.80
2018-12-08T20:57:45.019Z,10.80
2018-12-08T21:02:49.279Z,10.80
2018-12-08T21:07:53.832Z,10.80
2018-12-08T21:12:58.919Z,10.70
2018-12-08T21:18:02.848Z,10.60
2018-12-08T21:23:08.316Z,10.60
2018-12-08T21:28:12.021Z,10.60
2018-12-08T21:33:16.325Z,10.60
2018-12-08T21:38:20.599Z,10.70
2018-12-08T21:43:25.065Z,10.70
2018-12-08T21:48:29.085Z,10.70
2018-12-08T21:53:35.454Z,10.70
2018-12-08T21:58:40.287Z,10.70
2018-12-08T22:03:44.335Z,10.70
2018-12-08T22:08:48.012Z,10.70
2018-12-08T22:13:51.740Z,10.70
2018-12-08T22:29:53.414Z,10.80
2018-12-08T22:34:57.529Z,10.80
2018-12-08T22:40:01.488Z,10.90
2018-12-08T22:45:06.757Z,10.90
2018-12-08T22:50:10.774Z,11.00
2018-12-08T22:55:14.673Z,11.10
2018-12-08T23:00:29.673Z,11.10
2018-12-08T23:05:33.237Z,11.20
2018-12-08T23:10:37.185Z,11.20
2018-12-08T23:15:40.788Z,11.30
2018-12-08T23:20:44.336Z,11.30
2018-12-08T23:25:47.949Z,11.30
2018-12-08T23:30:52.382Z,11.30
2018-12-08T23:35:56.542Z,11.30
2018-12-08T23:41:00.466Z,11.30
2018-12-08T23:46:04.176Z,11.40
2018-12-08T23:51:07.887Z,11.30
2018-12-08T23:56:12.229Z,11.30
